Time;durP1;ratioP1;P1;durP2;ratioP2;P2;SDS_P1;SDS_P2;PMS_P1;PMS_P2;Temp;Humidity;BMP_temperature;BMP_pressure;BME280_temperature;BME280_humidity;BME280_pressure;Samples;Min_cycle;Max_cycle;Signal;HPM_P1;HPM_P2
2024/01/25 00:00:41;;;;;;;0.60;0.60;;;13.20;57.80;;;;;;5094188;28;20103;-68
2024/01/25 00:03:06;;;;;;;0.65;0.65;;;13.20;57.80;;;;;;5094366;28;20032;-68
2024/01/25 00:05:32;;;;;;;0.70;0.70;;;13.20;57.80;;;;;;5094175;28;20085;-69
2024/01/25 00:07:58;;;;;;;3.00;1.85;;;13.20;57.80;;;;;;5093806;28;20528;-68
2024/01/25 00:10:23;;;;;;;0.60;0.60;;;13.10;57.80;;;;;;5094018;28;20476;-68
2024/01/25 00:12:49;;;;;;;0.80;0.80;;;13.20;57.50;;;;;;5094009;28;20036;-68
2024/01/25 00:15:14;;;;;;;0.95;0.95;;;13.20;57.60;;;;;;5093926;28;20077;-68
2024/01/25 00:17:40;;;;;;;0.60;0.60;;;13.10;57.50;;;;;;5093807;28;20036;-68
2024/01/25 00:20:08;;;;;;;2.40;1.75;;;13.10;57.60;;;;;;5093966;28;20024;-68
2024/01/25 00:22:34;;;;;;;0.55;0.55;;;13.10;57.70;;;;;;5093938;28;20070;-68
2024/01/25 00:25:00;;;;;;;0.98;0.98;;;13.10;57.60;;;;;;5093642;28;20082;-68
2024/01/25 00:27:25;;;;;;;0.95;0.88;;;13.10;57.70;;;;;;5093617;28;20028;-68
2024/01/25 00:29:51;;;;;;;0.80;0.80;;;13.00;57.70;;;;;;5093528;28;20030;-69
2024/01/25 00:32:16;;;;;;;0.60;0.60;;;13.10;57.50;;;;;;5093601;28;20048;-68
2024/01/25 00:34:42;;;;;;;1.05;1.05;;;13.10;57.60;;;;;;5093718;28;20020;-68
2024/01/25 00:37:08;;;;;;;0.50;0.50;;;13.00;57.60;;;;;;5093848;28;20028;-68
2024/01/25 00:39:34;;;;;;;1.35;1.25;;;13.00;57.80;;;;;;5093376;28;20055;-68
2024/01/25 00:42:05;;;;;;;0.50;0.50;;;13.00;57.70;;;;;;5093449;28;20039;-68
2024/01/25 00:44:31;;;;;;;0.77;0.77;;;13.00;57.80;;;;;;5093515;28;20464;-69
2024/01/25 00:46:56;;;;;;;0.95;0.95;;;13.10;57.70;;;;;;5093289;28;20489;-68
2024/01/25 00:49:22;;;;;;;0.50;0.50;;;13.00;57.70;;;;;;5093639;28;20090;-68
2024/01/25 00:51:48;;;;;;;7.00;0.90;;;13.00;57.50;;;;;;5093289;28;20069;-69
2024/01/25 00:54:14;;;;;;;0.82;0.82;;;13.00;57.60;;;;;;5093791;28;20029;-69
2024/01/25 00:56:40;;;;;;;0.60;0.60;;;12.90;57.60;;;;;;5093101;28;20024;-69
2024/01/25 00:59:06;;;;;;;1.23;1.23;;;12.90;57.60;;;;;;5093443;28;20093;-69
2024/01/25 01:01:32;;;;;;;1.02;1.02;;;12.90;57.70;;;;;;5092979;28;20074;-69
2024/01/25 01:03:58;;;;;;;1.42;1.33;;;12.80;57.60;;;;;;5093323;28;20436;-69
2024/01/25 01:06:24;;;;;;;0.60;0.60;;;12.80;57.70;;;;;;5092849;28;20063;-69
2024/01/25 01:08:50;;;;;;;1.55;1.20;;;12.80;57.60;;;;;;5093179;28;20368;-69
2024/01/25 01:11:16;;;;;;;0.40;0.40;;;12.80;57.60;;;;;;5093141;28;20080;-69
2024/01/25 01:13:41;;;;;;;0.50;0.50;;;12.80;57.80;;;;;;5093066;28;20383;-69
2024/01/25 01:16:07;;;;;;;0.65;0.65;;;12.70;57.80;;;;;;5092632;28;20035;-68
2024/01/25 01:18:32;;;;;;;0.50;0.50;;;12.70;57.70;;;;;;5092224;28;20036;-68
2024/01/25 01:20:58;;;;;;;0.57;0.57;;;12.70;57.80;;;;;;5092799;28;20099;-68
2024/01/25 01:23:23;;;;;;;0.50;0.50;;;12.60;57.90;;;;;;5092823;28;20433;-68
2024/01/25 01:25:49;;;;;;;1.48;1.38;;;12.50;58.00;;;;;;5092779;28;20107;-68
2024/01/25 01:28:14;;;;;;;1.67;1.50;;;12.60;58.10;;;;;;5092648;28;20039;-68
2024/01/25 01:30:41;;;;;;;0.73;0.73;;;12.40;58.20;;;;;;5092487;28;20035;-68
2024/01/25 01:33:08;;;;;;;0.90;0.90;;;12.40;58.20;;;;;;5092671;28;20020;-68
2024/01/25 01:35:33;;;;;;;0.50;0.50;;;12.30;58.40;;;;;;5092441;28;20480;-68
2024/01/25 01:37:59;;;;;;;0.50;0.50;;;12.30;58.50;;;;;;5092568;28;20071;-68
2024/01/25 01:40:25;;;;;;;0.68;0.68;;;12.30;58.50;;;;;;5092527;28;20102;-68
2024/01/25 01:42:50;;;;;;;1.30;1.23;;;12.30;58.70;;;;;;5092343;28;20085;-68
2024/01/25 01:45:15;;;;;;;1.73;0.73;;;12.20;58.70;;;;;;5092346;28;20223;-68
2024/01/25 01:47:41;;;;;;;0.50;0.50;;;12.20;58.80;;;;;;5092134;28;20082;-68
2024/01/25 01:50:09;;;;;;;0.50;0.50;;;12.10;58.90;;;;;;5092132;28;20027;-68
2024/01/25 01:52:34;;;;;;;2.95;2.67;;;12.00;58.90;;;;;;5092098;28;20077;-68
2024/01/25 01:55:00;;;;;;;0.80;0.80;;;12.10;59.10;;;;;;5092013;28;20103;-68
2024/01/25 01:57:27;;;;;;;1.33;1.25;;;12.10;59.20;;;;;;5092558;28;20106;-68
2024/01/25 01:59:52;;;;;;;0.70;0.70;;;12.00;59.30;;;;;;5092165;28;20080;-68
2024/01/25 02:02:18;;;;;;;0.57;0.57;;;12.00;59.40;;;;;;5092026;28;20099;-68
2024/01/25 02:04:44;;;;;;;0.75;0.75;;;12.00;59.60;;;;;;5091770;28;20066;-69
2024/01/25 02:07:10;;;;;;;0.50;0.50;;;12.10;59.50;;;;;;5091650;28;20031;-69
2024/01/25 02:09:36;;;;;;;0.50;0.50;;;12.10;59.50;;;;;;5091787;28;20026;-68
2024/01/25 02:12:02;;;;;;;0.60;0.60;;;12.00;59.50;;;;;;5091632;28;20467;-68
2024/01/25 02:14:28;;;;;;;0.70;0.70;;;12.10;59.60;;;;;;5092087;28;20027;-68
2024/01/25 02:16:53;;;;;;;2.72;1.05;;;12.10;59.60;;;;;;5091767;28;20375;-68
2024/01/25 02:19:19;;;;;;;0.63;0.63;;;12.10;59.60;;;;;;5092081;28;20028;-68
2024/01/25 02:21:44;;;;;;;2.55;1.10;;;12.10;59.70;;;;;;5091724;28;20036;-68
2024/01/25 02:24:10;;;;;;;0.57;0.57;;;12.10;59.80;;;;;;5091481;28;20479;-68
2024/01/25 02:26:36;;;;;;;0.70;0.70;;;12.20;59.70;;;;;;5091566;28;20530;-68
2024/01/25 02:29:04;;;;;;;0.50;0.50;;;12.20;59.80;;;;;;5092016;28;20036;-68
2024/01/25 02:31:30;;;;;;;0.52;0.52;;;12.20;59.80;;;;;;5091810;28;20016;-68
2024/01/25 02:33:56;;;;;;;2.65;1.63;;;12.20;59.70;;;;;;5091883;28;20035;-68
2024/01/25 02:36:24;;;;;;;0.50;0.50;;;12.30;59.80;;;;;;5091568;28;20598;-68
2024/01/25 02:38:50;;;;;;;0.50;0.50;;;12.30;59.80;;;;;;5091638;28;20054;-68
2024/01/25 02:41:15;;;;;;;0.50;0.50;;;12.30;59.80;;;;;;5091442;28;20036;-68
2024/01/25 02:43:41;;;;;;;0.50;0.50;;;12.30;59.70;;;;;;5091603;28;20048;-68
2024/01/25 02:46:07;;;;;;;2.25;1.25;;;12.30;59.80;;;;;;5091329;28;20027;-68
2024/01/25 02:48:33;;;;;;;0.50;0.50;;;12.30;59.70;;;;;;5091791;28;20044;-68
2024/01/25 02:50:59;;;;;;;1.10;1.10;;;12.30;59.80;;;;;;5091500;28;20077;-68
2024/01/25 02:53:24;;;;;;;0.85;0.85;;;12.40;59.70;;;;;;5091635;28;20425;-68
2024/01/25 02:55:50;;;;;;;0.50;0.50;;;12.30;59.60;;;;;;5091207;28;20020;-69
2024/01/25 02:58:15;;;;;;;0.60;0.60;;;12.30;59.60;;;;;;5091517;28;20044;-68
2024/01/25 03:00:40;;;;;;;0.50;0.50;;;12.30;59.40;;;;;;5091266;28;20062;-68
2024/01/25 03:03:06;;;;;;;0.70;0.70;;;12.30;59.40;;;;;;5091357;28;20044;-69
2024/01/25 03:05:32;;;;;;;1.13;1.02;;;12.20;59.40;;;;;;5091344;28;20101;-68
2024/01/25 03:07:57;;;;;;;1.52;1.27;;;12.20;59.30;;;;;;5090909;28;20029;-68
2024/01/25 03:10:23;;;;;;;26.92;1.92;;;12.20;59.50;;;;;;5091369;28;20032;-68
2024/01/25 03:12:49;;;;;;;0.95;0.95;;;12.10;59.70;;;;;;5091261;28;20048;-69
2024/01/25 03:15:15;;;;;;;2.35;0.98;;;12.20;59.70;;;;;;5091333;28;20375;-68
2024/01/25 03:17:41;;;;;;;0.60;0.60;;;12.20;59.80;;;;;;5091176;28;20041;-68
2024/01/25 03:20:07;;;;;;;0.50;0.50;;;12.20;59.80;;;;;;5091125;28;20499;-68
2024/01/25 03:22:32;;;;;;;0.50;0.50;;;12.30;59.80;;;;;;5091103;28;20108;-68
2024/01/25 03:24:58;;;;;;;1.13;1.13;;;12.30;59.70;;;;;;5091138;28;20455;-68
2024/01/25 03:27:23;;;;;;;0.63;0.63;;;12.30;59.70;;;;;;5091067;28;20514;-68
2024/01/25 03:29:49;;;;;;;1.38;1.35;;;12.30;59.70;;;;;;5090910;28;20085;-68
2024/01/25 03:32:14;;;;;;;0.57;0.57;;;12.30;59.70;;;;;;5091026;28;20372;-68
2024/01/25 03:34:40;;;;;;;0.50;0.50;;;12.40;59.80;;;;;;5091205;28;20035;-69
2024/01/25 03:37:05;;;;;;;0.60;0.60;;;12.40;59.70;;;;;;5091012;28;20032;-68
2024/01/25 03:39:31;;;;;;;0.50;0.50;;;12.40;59.70;;;;;;5091002;28;20028;-69
2024/01/25 03:41:56;;;;;;;0.60;0.60;;;12.40;59.50;;;;;;5092320;28;20451;-69
2024/01/25 03:44:22;;;;;;;0.80;0.80;;;12.40;59.40;;;;;;5094487;28;20028;-69
2024/01/25 03:46:47;;;;;;;0.60;0.60;;;12.40;59.40;;;;;;5093309;28;20557;-69
2024/01/25 03:49:13;;;;;;;0.52;0.52;;;12.40;59.50;;;;;;5094289;28;20112;-69
2024/01/25 03:51:38;;;;;;;0.77;0.75;;;12.40;59.50;;;;;;5094620;28;20388;-69
2024/01/25 03:54:04;;;;;;;0.50;0.50;;;12.40;59.40;;;;;;5094235;28;20500;-69
2024/01/25 03:56:29;;;;;;;0.50;0.50;;;12.50;59.40;;;;;;5094331;28;20028;-69
2024/01/25 03:58:55;;;;;;;0.50;0.50;;;12.40;59.30;;;;;;5094317;28;20028;-69
2024/01/25 04:01:20;;;;;;;1.45;1.35;;;12.40;59.30;;;;;;5094696;28;20395;-69
2024/01/25 04:03:46;;;;;;;1.02;1.00;;;12.40;59.20;;;;;;5094073;28;20502;-69
2024/01/25 04:06:11;;;;;;;0.98;0.98;;;12.30;59.20;;;;;;5094665;28;20028;-69
2024/01/25 04:08:37;;;;;;;0.80;0.80;;;12.30;59.20;;;;;;5094067;28;20028;-69
2024/01/25 04:11:03;;;;;;;0.40;0.40;;;12.20;59.20;;;;;;5094311;28;20051;-69
2024/01/25 04:13:28;;;;;;;0.98;0.98;;;12.20;59.40;;;;;;5094141;28;20453;-69
2024/01/25 04:15:54;;;;;;;0.50;0.50;;;12.20;59.40;;;;;;5094250;28;20056;-69
2024/01/25 04:18:19;;;;;;;0.50;0.50;;;12.20;59.50;;;;;;5093906;28;20036;-69
2024/01/25 04:20:45;;;;;;;0.80;0.80;;;12.20;59.50;;;;;;5094368;28;20074;-69
2024/01/25 04:23:10;;;;;;;0.50;0.50;;;12.20;59.40;;;;;;5093922;28;20032;-69
2024/01/25 04:25:36;;;;;;;0.50;0.50;;;12.20;59.50;;;;;;5094111;28;20352;-69
2024/01/25 04:28:02;;;;;;;0.70;0.70;;;12.20;59.50;;;;;;5093717;28;20039;-69
2024/01/25 04:30:27;;;;;;;0.50;0.50;;;12.20;59.60;;;;;;5094214;28;20040;-69
2024/01/25 04:32:53;;;;;;;0.50;0.50;;;12.30;59.70;;;;;;5093578;28;20060;-69
2024/01/25 04:35:18;;;;;;;0.90;0.90;;;12.20;59.60;;;;;;5094075;28;20074;-69
2024/01/25 04:37:44;;;;;;;3.80;2.45;;;12.30;59.40;;;;;;5093904;28;20610;-69
2024/01/25 04:40:09;;;;;;;0.80;0.80;;;12.20;59.30;;;;;;5093508;28;20032;-69
2024/01/25 04:42:35;;;;;;;0.50;0.50;;;12.10;59.20;;;;;;5093616;28;20059;-69
2024/01/25 04:45:00;;;;;;;0.50;0.50;;;12.00;59.30;;;;;;5093411;28;20480;-69
2024/01/25 04:47:26;;;;;;;1.02;0.90;;;12.00;59.30;;;;;;5093651;28;20046;-69
2024/01/25 04:49:51;;;;;;;1.65;1.30;;;11.90;59.40;;;;;;5093673;28;20050;-69
2024/01/25 04:52:17;;;;;;;0.55;0.55;;;11.90;59.50;;;;;;5091858;28;20085;-69
2024/01/25 04:54:42;;;;;;;0.50;0.50;;;11.90;59.60;;;;;;5092461;28;20042;-69
2024/01/25 04:57:08;;;;;;;0.50;0.50;;;11.90;59.70;;;;;;5093179;28;20137;-70
2024/01/25 04:59:33;;;;;;;0.77;0.77;;;11.90;59.90;;;;;;5093132;28;20024;-68
2024/01/25 05:01:59;;;;;;;0.55;0.55;;;11.90;59.80;;;;;;5093067;28;20055;-68
2024/01/25 05:04:25;;;;;;;0.63;0.63;;;11.90;59.80;;;;;;5093153;28;20035;-68
2024/01/25 05:06:50;;;;;;;0.57;0.57;;;11.90;59.70;;;;;;5092866;28;20035;-68
2024/01/25 05:09:16;;;;;;;2.00;1.83;;;12.00;59.80;;;;;;5092829;28;20099;-68
2024/01/25 05:11:41;;;;;;;0.70;0.70;;;11.90;59.70;;;;;;5092956;28;20028;-68
2024/01/25 05:14:07;;;;;;;0.75;0.75;;;11.90;59.80;;;;;;5092671;28;20020;-68
2024/01/25 05:16:35;;;;;;;0.50;0.50;;;11.90;59.70;;;;;;5092825;28;20129;-68
2024/01/25 05:19:00;;;;;;;0.70;0.70;;;11.90;59.70;;;;;;5092905;28;20024;-68
2024/01/25 05:21:26;;;;;;;0.63;0.63;;;11.90;59.70;;;;;;5092721;28;20502;-68
2024/01/25 05:23:51;;;;;;;0.50;0.50;;;11.90;59.70;;;;;;5092612;28;20081;-68
2024/01/25 05:26:17;;;;;;;1.15;1.00;;;11.90;59.60;;;;;;5093020;28;20028;-68
2024/01/25 05:28:43;;;;;;;0.70;0.70;;;11.90;59.60;;;;;;5092571;28;20025;-68
2024/01/25 05:31:12;;;;;;;0.50;0.50;;;11.80;59.60;;;;;;5091206;28;20028;-68
2024/01/25 05:33:39;;;;;;;0.60;0.60;;;11.80;59.50;;;;;;5092543;28;20115;-68
2024/01/25 05:36:05;;;;;;;2.47;1.92;;;11.70;59.50;;;;;;5092949;28;20387;-68
2024/01/25 05:38:32;;;;;;;1.13;1.05;;;11.60;59.50;;;;;;5092364;28;20035;-68
2024/01/25 05:40:57;;;;;;;0.70;0.70;;;11.50;59.70;;;;;;5092590;28;20031;-68
2024/01/25 05:43:23;;;;;;;0.85;0.85;;;11.40;59.80;;;;;;5092279;28;20032;-68
2024/01/25 05:45:49;;;;;;;0.60;0.60;;;11.40;59.90;;;;;;5092497;28;20108;-68
2024/01/25 05:48:14;;;;;;;0.50;0.50;;;11.40;59.90;;;;;;5092171;28;20039;-68
2024/01/25 05:50:40;;;;;;;0.40;0.40;;;11.30;60.10;;;;;;5092587;28;20020;-68
2024/01/25 05:53:05;;;;;;;1.15;1.13;;;11.30;60.20;;;;;;5092274;28;20032;-68
2024/01/25 05:55:31;;;;;;;0.75;0.75;;;11.30;60.20;;;;;;5092431;28;20486;-68
2024/01/25 05:57:56;;;;;;;0.50;0.50;;;11.30;60.20;;;;;;5092050;28;20364;-68
2024/01/25 06:00:22;;;;;;;0.52;0.52;;;11.20;60.30;;;;;;5092329;28;20476;-68
2024/01/25 06:02:48;;;;;;;1.13;1.13;;;11.20;60.40;;;;;;5092003;28;20081;-68
2024/01/25 06:05:13;;;;;;;1.38;1.27;;;11.20;60.50;;;;;;5091683;28;20035;-68
2024/01/25 06:07:40;;;;;;;0.50;0.50;;;11.20;60.50;;;;;;5092044;28;20387;-68
2024/01/25 06:10:06;;;;;;;0.70;0.70;;;11.20;60.40;;;;;;5091983;28;20459;-69
2024/01/25 06:12:31;;;;;;;0.50;0.50;;;11.20;60.30;;;;;;5092099;28;20532;-69
2024/01/25 06:14:57;;;;;;;0.90;0.90;;;11.00;60.30;;;;;;5091647;28;20095;-69
2024/01/25 06:17:22;;;;;;;0.80;0.80;;;11.00;60.40;;;;;;5091672;28;20047;-69
2024/01/25 06:19:48;;;;;;;0.80;0.80;;;10.90;60.50;;;;;;5091853;28;20099;-69
2024/01/25 06:22:13;;;;;;;0.50;0.50;;;10.80;60.50;;;;;;5091813;28;20035;-69
2024/01/25 06:24:39;;;;;;;2.40;1.25;;;10.70;60.60;;;;;;5091725;28;20379;-69
2024/01/25 06:27:05;;;;;;;0.70;0.70;;;10.70;60.60;;;;;;5091436;28;20506;-69
2024/01/25 06:29:30;;;;;;;1.75;1.65;;;10.60;60.50;;;;;;5091658;28;20094;-69
2024/01/25 06:31:56;;;;;;;0.50;0.50;;;10.50;60.70;;;;;;5091545;28;20103;-69
2024/01/25 06:34:21;;;;;;;0.60;0.60;;;10.40;60.90;;;;;;5091506;28;20103;-69
2024/01/25 06:36:47;;;;;;;1.60;1.50;;;10.30;61.10;;;;;;5091926;28;20055;-69
2024/01/25 06:39:12;;;;;;;0.68;0.68;;;10.30;61.20;;;;;;5091308;28;20033;-69
2024/01/25 06:41:38;;;;;;;0.50;0.50;;;10.30;61.30;;;;;;5091485;28;20028;-69
2024/01/25 06:44:04;;;;;;;1.30;1.20;;;10.20;61.30;;;;;;5091198;28;20028;-69
2024/01/25 06:46:29;;;;;;;2.40;1.65;;;10.10;61.20;;;;;;5091428;28;20062;-69
2024/01/25 06:48:55;;;;;;;0.60;0.60;;;10.10;61.30;;;;;;5091501;28;20032;-69
2024/01/25 06:51:20;;;;;;;0.50;0.50;;;10.00;61.30;;;;;;5092033;28;20424;-69
2024/01/25 06:53:46;;;;;;;0.50;0.50;;;9.90;61.20;;;;;;5091301;28;20099;-69
2024/01/25 06:56:12;;;;;;;0.70;0.70;;;9.80;61.30;;;;;;5091667;28;20455;-69
2024/01/25 06:58:37;;;;;;;0.60;0.60;;;9.80;61.50;;;;;;5091157;28;20085;-69
2024/01/25 07:01:04;;;;;;;0.50;0.50;;;9.70;61.70;;;;;;5091485;28;20086;-69
2024/01/25 07:03:30;;;;;;;0.40;0.40;;;9.60;61.90;;;;;;5091304;28;20042;-69
2024/01/25 07:05:55;;;;;;;0.93;0.93;;;9.60;62.00;;;;;;5091543;28;20032;-69
2024/01/25 07:08:21;;;;;;;0.60;0.60;;;9.50;62.00;;;;;;5091232;28;20036;-69
2024/01/25 07:10:46;;;;;;;0.60;0.60;;;9.50;61.90;;;;;;5091602;28;20024;-68
2024/01/25 07:13:12;;;;;;;1.35;1.23;;;9.40;62.00;;;;;;5091062;28;20039;-68
2024/01/25 07:15:38;;;;;;;0.55;0.55;;;9.30;62.10;;;;;;5091514;28;20017;-68
2024/01/25 07:18:04;;;;;;;0.70;0.70;;;9.30;62.20;;;;;;5094404;28;20032;-68
2024/01/25 07:20:29;;;;;;;0.50;0.50;;;9.20;62.30;;;;;;5095463;28;20020;-68
2024/01/25 07:22:55;;;;;;;0.52;0.52;;;9.20;62.40;;;;;;5095286;28;20448;-68
2024/01/25 07:25:21;;;;;;;0.40;0.40;;;9.10;62.50;;;;;;5094945;28;20111;-68
2024/01/25 07:27:47;;;;;;;1.35;1.27;;;9.10;62.70;;;;;;5094961;28;20111;-68
2024/01/25 07:30:13;;;;;;;0.60;0.60;;;9.00;62.90;;;;;;5094743;28;20058;-68
2024/01/25 07:32:41;;;;;;;0.45;0.45;;;9.00;63.00;;;;;;5094878;28;20024;-68
2024/01/25 07:35:07;;;;;;;2.25;1.30;;;9.00;63.00;;;;;;5093807;28;20024;-68
2024/01/25 07:37:33;;;;;;;0.60;0.60;;;9.00;63.10;;;;;;5094838;28;20034;-68
2024/01/25 07:39:58;;;;;;;0.60;0.60;;;9.00;63.20;;;;;;5094963;28;20034;-68
2024/01/25 07:42:24;;;;;;;0.60;0.60;;;9.00;63.30;;;;;;5094809;28;20090;-68
2024/01/25 07:44:49;;;;;;;0.60;0.60;;;9.00;63.40;;;;;;5094678;28;20035;-68
2024/01/25 07:47:15;;;;;;;0.68;0.68;;;9.00;63.40;;;;;;5094381;28;20059;-68
2024/01/25 07:49:41;;;;;;;2.60;1.02;;;9.00;63.40;;;;;;5094459;28;20114;-68
2024/01/25 07:52:06;;;;;;;0.85;0.85;;;9.00;63.60;;;;;;5094341;28;20104;-67
2024/01/25 07:54:32;;;;;;;0.55;0.55;;;9.10;63.70;;;;;;5094508;28;20440;-68
2024/01/25 07:56:57;;;;;;;0.50;0.50;;;9.20;63.80;;;;;;5094608;28;20025;-68
2024/01/25 07:59:23;;;;;;;0.50;0.50;;;9.20;63.90;;;;;;5094322;28;20043;-68
2024/01/25 08:01:48;;;;;;;1.00;1.00;;;9.30;64.20;;;;;;5094379;28;20038;-68
2024/01/25 08:04:14;;;;;;;0.98;0.98;;;9.40;64.40;;;;;;5094087;28;20047;-68
2024/01/25 08:06:39;;;;;;;0.55;0.55;;;9.50;64.50;;;;;;5094189;28;20032;-68
2024/01/25 08:09:05;;;;;;;0.73;0.73;;;9.60;64.50;;;;;;5093935;28;20040;-68
2024/01/25 08:11:30;;;;;;;0.60;0.60;;;9.70;64.60;;;;;;5094334;28;20150;-68
2024/01/25 08:13:57;;;;;;;0.50;0.50;;;9.80;64.60;;;;;;5094081;28;20391;-68
2024/01/25 08:16:22;;;;;;;0.60;0.60;;;9.90;64.50;;;;;;5094478;28;20027;-68
2024/01/25 08:18:48;;;;;;;1.45;1.35;;;10.00;64.60;;;;;;5093977;28;20040;-68
2024/01/25 08:21:14;;;;;;;0.55;0.55;;;10.10;64.60;;;;;;5094275;28;20119;-68
2024/01/25 08:23:40;;;;;;;0.52;0.52;;;10.30;64.70;;;;;;5093800;28;20032;-68
2024/01/25 08:26:09;;;;;;;0.50;0.50;;;10.50;65.20;;;;;;5094156;28;20343;-68
2024/01/25 08:28:36;;;;;;;1.58;0.98;;;10.70;65.40;;;;;;5093858;28;20297;-68
2024/01/25 08:31:02;;;;;;;0.63;0.63;;;10.90;65.80;;;;;;5094423;28;20419;-68
2024/01/25 08:33:27;;;;;;;0.55;0.55;;;11.20;65.70;;;;;;5093741;28;20093;-68
2024/01/25 08:35:53;;;;;;;0.70;0.70;;;11.40;65.70;;;;;;5094006;28;20024;-69
2024/01/25 08:38:18;;;;;;;1.38;1.27;;;11.70;65.50;;;;;;5093554;28;20032;-68
2024/01/25 08:40:44;;;;;;;2.50;1.58;;;11.90;65.20;;;;;;5093781;28;20031;-68
2024/01/25 08:43:09;;;;;;;0.50;0.50;;;12.10;64.90;;;;;;5093390;28;20065;-68
2024/01/25 08:45:35;;;;;;;0.60;0.60;;;12.30;64.70;;;;;;5093999;28;20106;-68
2024/01/25 08:48:00;;;;;;;0.50;0.50;;;12.50;64.30;;;;;;5093283;28;20032;-69
2024/01/25 08:50:26;;;;;;;0.90;0.75;;;12.60;63.30;;;;;;5093553;28;20024;-68
2024/01/25 08:52:52;;;;;;;0.50;0.50;;;12.70;62.60;;;;;;5093279;28;20129;-68
2024/01/25 08:55:17;;;;;;;21.98;4.53;;;12.70;62.30;;;;;;5093437;28;20020;-68
2024/01/25 08:57:43;;;;;;;0.77;0.77;;;12.80;62.10;;;;;;5091946;28;20490;-68
2024/01/25 09:00:12;;;;;;;0.80;0.80;;;12.80;61.80;;;;;;5093116;28;20032;-69
2024/01/25 09:02:38;;;;;;;0.70;0.70;;;12.90;61.50;;;;;;5093396;28;20556;-69
2024/01/25 09:05:08;;;;;;;0.75;0.75;;;12.90;61.20;;;;;;5093356;28;20383;-69
2024/01/25 09:07:34;;;;;;;0.95;0.93;;;13.00;60.80;;;;;;5093238;28;20471;-68
2024/01/25 09:10:00;;;;;;;0.75;0.75;;;13.00;61.00;;;;;;5092986;28;20032;-69
2024/01/25 09:12:28;;;;;;;0.50;0.50;;;13.10;61.10;;;;;;5092927;28;20427;-68
2024/01/25 09:14:54;;;;;;;0.60;0.60;;;13.20;61.10;;;;;;5092835;28;20032;-69
2024/01/25 09:17:21;;;;;;;1.52;1.42;;;13.30;60.90;;;;;;5092772;28;20369;-69
2024/01/25 09:19:51;;;;;;;1.40;1.30;;;13.30;60.50;;;;;;5092829;28;20020;-68
2024/01/25 09:22:19;;;;;;;0.95;0.95;;;13.30;59.50;;;;;;5092733;28;20035;-68
2024/01/25 09:24:47;;;;;;;3.10;2.28;;;13.30;59.70;;;;;;5092732;28;20035;-68
2024/01/25 09:27:14;;;;;;;0.50;0.50;;;13.40;59.50;;;;;;5092802;28;20076;-68
2024/01/25 09:29:40;;;;;;;9.65;1.90;;;13.40;59.20;;;;;;5092630;28;20460;-69
2024/01/25 09:32:07;;;;;;;0.60;0.60;;;13.30;58.90;;;;;;5092739;28;20498;-69
2024/01/25 09:34:33;;;;;;;0.73;0.73;;;13.30;58.50;;;;;;5092506;28;20425;-68
2024/01/25 09:36:58;;;;;;;0.55;0.55;;;13.30;58.30;;;;;;5092496;28;20032;-69
2024/01/25 09:39:24;;;;;;;0.50;0.50;;;13.20;58.00;;;;;;5091832;28;20148;-69
2024/01/25 09:41:49;;;;;;;9.85;1.95;;;13.10;57.90;;;;;;5092410;28;20027;-69
2024/01/25 09:44:17;;;;;;;1.65;1.50;;;13.10;58.10;;;;;;5092220;28;20040;-69
2024/01/25 09:46:43;;;;;;;16.45;1.90;;;13.10;58.50;;;;;;5092346;28;20547;-69
2024/01/25 09:49:09;;;;;;;1.25;1.15;;;13.30;58.50;;;;;;5092266;28;20391;-69
2024/01/25 09:51:37;;;;;;;2.10;1.90;;;13.40;58.50;;;;;;5092238;28;20028;-69
2024/01/25 09:54:05;;;;;;;0.68;0.68;;;13.50;58.20;;;;;;5091898;28;20031;-69
2024/01/25 09:56:32;;;;;;;0.88;0.88;;;13.50;58.10;;;;;;5092192;28;20475;-69
2024/01/25 09:58:58;;;;;;;0.50;0.50;;;13.70;58.20;;;;;;5092055;28;20601;-69
2024/01/25 10:01:24;;;;;;;0.68;0.68;;;13.70;58.10;;;;;;5092478;28;20095;-69
2024/01/25 10:03:49;;;;;;;0.82;0.82;;;13.80;57.90;;;;;;5091839;28;20162;-69
2024/01/25 10:06:16;;;;;;;0.98;0.98;;;13.90;57.60;;;;;;5092315;28;20429;-69
2024/01/25 10:08:42;;;;;;;0.60;0.60;;;14.00;57.50;;;;;;5092094;28;20032;-69
2024/01/25 10:11:14;;;;;;;1.58;0.90;;;14.10;57.50;;;;;;5091542;28;20024;-69
2024/01/25 10:13:44;;;;;;;1.08;1.00;;;14.20;57.00;;;;;;5092079;28;20468;-69
2024/01/25 10:16:16;;;;;;;1.25;1.25;;;14.20;56.60;;;;;;5092318;28;20384;-69
2024/01/25 10:18:43;;;;;;;1.55;1.13;;;14.20;56.80;;;;;;5091902;28;20032;-69
2024/01/25 10:21:13;;;;;;;0.57;0.57;;;14.30;56.90;;;;;;5090835;28;20032;-70
2024/01/25 10:23:39;;;;;;;0.50;0.50;;;14.30;57.20;;;;;;5091648;28;20028;-69
2024/01/25 10:26:05;;;;;;;0.55;0.55;;;14.50;57.20;;;;;;5091951;28;20479;-69
2024/01/25 10:28:32;;;;;;;0.60;0.60;;;14.50;56.50;;;;;;5091661;28;20086;-69
2024/01/25 10:31:01;;;;;;;0.57;0.57;;;14.60;56.00;;;;;;5091905;28;20031;-69
2024/01/25 10:33:27;;;;;;;0.50;0.50;;;14.50;55.80;;;;;;5091616;28;20051;-69
2024/01/25 10:36:02;;;;;;;0.50;0.50;;;14.50;55.80;;;;;;5091937;28;20064;-69
2024/01/25 10:38:35;;;;;;;0.60;0.60;;;14.50;55.80;;;;;;5091554;28;20531;-69
2024/01/25 10:41:02;;;;;;;1.70;1.30;;;14.70;56.30;;;;;;5091747;28;20086;-69
2024/01/25 10:43:30;;;;;;;2.08;1.00;;;14.80;56.40;;;;;;5091441;28;20059;-69
2024/01/25 10:45:57;;;;;;;0.95;0.95;;;14.90;56.30;;;;;;5091757;28;20494;-69
2024/01/25 10:48:27;;;;;;;1.25;1.15;;;15.10;56.00;;;;;;5091233;28;20029;-69
2024/01/25 10:50:54;;;;;;;0.70;0.70;;;15.20;55.50;;;;;;5091800;28;20416;-69
2024/01/25 10:53:21;;;;;;;0.68;0.68;;;15.30;55.40;;;;;;5095764;28;20062;-69
2024/01/25 10:55:47;;;;;;;2.03;1.25;;;15.40;55.00;;;;;;5095953;28;20020;-69
2024/01/25 10:58:13;;;;;;;1.48;1.23;;;15.60;55.40;;;;;;5095455;28;20032;-69
2024/01/25 11:00:39;;;;;;;2.33;1.30;;;15.80;55.70;;;;;;5095690;28;20036;-69
2024/01/25 11:03:06;;;;;;;0.85;0.85;;;15.90;55.40;;;;;;5095381;28;20093;-69
2024/01/25 11:05:32;;;;;;;0.73;0.73;;;16.00;54.30;;;;;;5095551;28;20043;-69
2024/01/25 11:07:58;;;;;;;0.88;0.88;;;16.10;53.80;;;;;;5095251;28;20468;-69
2024/01/25 11:10:27;;;;;;;0.90;0.90;;;16.10;53.80;;;;;;5095440;28;20368;-69
2024/01/25 11:12:58;;;;;;;1.35;1.25;;;16.20;53.20;;;;;;5095170;28;20035;-69
2024/01/25 11:15:31;;;;;;;1.52;1.40;;;16.20;53.30;;;;;;5095416;28;20371;-69
2024/01/25 11:17:57;;;;;;;0.73;0.73;;;16.30;53.30;;;;;;5095173;28;20523;-69
2024/01/25 11:20:24;;;;;;;0.50;0.50;;;16.30;53.00;;;;;;5095264;28;20032;-69
2024/01/25 11:23:07;;;;;;;1.23;1.13;;;16.40;52.40;;;;;;5095267;28;20024;-69
2024/01/25 11:25:35;;;;;;;0.57;0.57;;;16.50;52.70;;;;;;5095250;28;20485;-69
2024/01/25 11:28:02;;;;;;;0.70;0.70;;;16.70;53.20;;;;;;5094885;28;20075;-69
2024/01/25 11:30:30;;;;;;;0.60;0.60;;;17.00;53.70;;;;;;5095235;28;20059;-69
2024/01/25 11:32:55;;;;;;;1.10;1.10;;;17.20;52.60;;;;;;5094940;28;20032;-69
2024/01/25 11:35:21;;;;;;;0.70;0.70;;;17.30;51.80;;;;;;5095195;28;20026;-69
2024/01/25 11:37:48;;;;;;;0.77;0.77;;;17.50;52.20;;;;;;5094679;28;20036;-69
2024/01/25 11:40:14;;;;;;;0.50;0.50;;;17.70;50.80;;;;;;5093291;28;20122;-69
2024/01/25 11:42:42;;;;;;;1.27;1.17;;;17.80;50.70;;;;;;5094800;28;20028;-69
2024/01/25 11:45:09;;;;;;;1.02;1.00;;;17.80;48.60;;;;;;5094718;28;20034;-69
2024/01/25 11:47:36;;;;;;;0.60;0.60;;;17.70;48.50;;;;;;5094644;28;20043;-69
2024/01/25 11:50:02;;;;;;;1.38;0.93;;;17.70;48.40;;;;;;5094618;28;20375;-69
2024/01/25 11:52:28;;;;;;;0.80;0.80;;;17.60;48.10;;;;;;5094588;28;20030;-69
2024/01/25 11:54:54;;;;;;;0.70;0.70;;;17.60;47.90;;;;;;5094585;28;20028;-69
2024/01/25 11:57:20;;;;;;;0.50;0.50;;;17.60;48.20;;;;;;5094602;28;20039;-69
2024/01/25 11:59:46;;;;;;;0.63;0.63;;;17.60;48.20;;;;;;5094679;28;20031;-69
2024/01/25 12:02:15;;;;;;;0.60;0.60;;;17.50;48.00;;;;;;5093689;28;20035;-69
2024/01/25 12:04:40;;;;;;;0.57;0.57;;;17.40;48.70;;;;;;5094317;28;20032;-69
2024/01/25 12:07:06;;;;;;;0.50;0.50;;;17.60;49.60;;;;;;5094146;28;20024;-69
2024/01/25 12:09:32;;;;;;;1.70;1.27;;;17.80;49.80;;;;;;5094125;28;20036;-69
2024/01/25 12:12:00;;;;;;;1.25;0.93;;;18.00;49.40;;;;;;5094111;28;20038;-69
2024/01/25 12:14:27;;;;;;;0.52;0.52;;;18.10;48.40;;;;;;5094042;28;20028;-69
2024/01/25 12:16:55;;;;;;;0.70;0.70;;;18.20;47.30;;;;;;5094358;28;20033;-69
2024/01/25 12:19:21;;;;;;;2.13;0.85;;;18.20;47.80;;;;;;5093940;28;20040;-69
2024/01/25 12:21:47;;;;;;;1.05;1.05;;;18.30;47.20;;;;;;5094010;28;20725;-69
2024/01/25 12:24:12;;;;;;;1.35;1.27;;;18.30;45.90;;;;;;5093757;28;20055;-69
2024/01/25 12:26:38;;;;;;;0.70;0.70;;;18.10;44.90;;;;;;5093944;28;20028;-69
2024/01/25 12:29:04;;;;;;;0.85;0.85;;;17.80;44.30;;;;;;5093665;28;20028;-69
2024/01/25 12:31:30;;;;;;;0.50;0.50;;;17.40;44.90;;;;;;5093796;28;20053;-69
2024/01/25 12:33:57;;;;;;;0.80;0.80;;;17.10;45.90;;;;;;5093939;28;20033;-69
2024/01/25 12:36:22;;;;;;;0.50;0.50;;;17.00;46.50;;;;;;5093431;28;20031;-69
2024/01/25 12:38:48;;;;;;;0.60;0.60;;;17.00;46.40;;;;;;5093527;28;20028;-70
2024/01/25 12:41:14;;;;;;;0.90;0.90;;;16.80;46.00;;;;;;5093968;28;20490;-69